Latest Weather Observations for Maroochydore

IDQ60901

Issued at 6:51 pm EST Wednesday 28 June 2017 (issued every 10 minutes, with the page automatically refreshed every 10 minutes)

About weather observations | Map of Brisbane area stations | Latest observations for Brisbane area | Other Formats
Station Details ID: 040861 Name: SUNSHINE COAST AIRPORT Lat: -26.60 Lon: 153.09 Height: 3.3 m
Data from the previous 72 hours. | See also: Recent months at Maroochydore
Date/Time
EST
Temp
°C
App
Temp
°C
Dew
Point
°C
Rel
Hum
%
Delta-T
°C
Wind Press
QNH
hPa
Press
MSL
hPa
Rain since
9am
mm
Dir  Spd
km/h
Gust
km/h
Spd
kts
Gust
kts
28/06:30pm 19.6 17.8 13.3 67 3.6 NNE 15 19 8 10 1023.0 - 0.0
28/06:00pm 19.9 17.9 13.8 68 3.5 NNE 17 20 9 11 1022.9 1022.9 0.0
28/05:30pm 20.0 18.0 13.9 68 3.5 NNE 17 22 9 12 1022.7 - 0.0
28/05:00pm 19.7 17.9 13.2 66 3.7 NNE 15 20 8 11 1022.7 - 0.0
28/04:30pm 20.4 18.1 13.1 63 4.2 NNE 17 20 9 11 1022.5 - 0.0
28/04:00pm 21.2 18.9 12.9 59 4.7 NNE 17 20 9 11 1022.4 - 0.0
28/03:30pm 21.2 19.3 12.9 59 4.7 NNE 15 20 8 11 1022.3 - 0.0
28/03:00pm 22.2 19.4 12.5 54 5.5 NNE 19 22 10 12 1022.3 1022.3 0.0
28/02:30pm 23.1 20.4 13.0 53 5.8 NE 19 20 10 11 1022.2 - 0.0
28/02:00pm 23.2 21.1 13.7 55 5.5 NE 17 22 9 12 1022.2 - 0.0
28/01:30pm 23.6 21.8 13.2 52 6.0 NE 15 20 8 11 1022.3 - 0.0
28/01:00pm 22.6 21.5 14.2 59 4.9 ENE 13 17 7 9 1022.5 - 0.0
28/12:30pm 22.5 21.9 15.6 65 4.1 E 13 19 7 10 1022.8 - 0.0
28/12:00pm 22.1 21.1 14.5 62 4.4 E 13 17 7 9 1023.4 1023.4 0.0
28/11:30am 22.2 21.2 14.6 62 4.5 ESE 13 15 7 8 1024.0 - 0.0
28/11:00am 22.0 21.5 13.9 60 4.7 E 9 13 5 7 1024.4 - 0.0
28/10:30am 22.3 22.0 14.4 61 4.6 ESE 9 11 5 6 1024.7 - 0.0
28/10:00am 22.1 22.2 14.0 60 4.7 ENE 6 11 3 6 1024.8 - 0.0
28/09:30am 19.9 20.1 14.7 72 3.0 SSW 7 11 4 6 1024.9 - 0.0
28/09:00am 18.0 18.8 15.8 87 1.3 WSW 6 7 3 4 1024.9 1024.9 0.0
28/08:30am 16.4 16.8 15.4 94 0.6 WSW 7 9 4 5 1024.9 - 0.0
28/08:00am 15.7 16.0 15.1 96 0.3 WSW 7 9 4 5 1024.6 - 0.0
28/07:30am 14.8 14.8 14.3 97 0.3 WSW 7 9 4 5 1024.2 - 0.0
28/07:00am 14.2 13.6 13.6 96 0.3 SW 9 11 5 6 1024.0 - 0.0
28/06:30am 13.2 12.9 12.7 97 0.3 SW 6 6 3 3 1023.7 - 0.0
28/06:00am 13.2 12.7 12.6 96 0.3 SW 7 7 4 4 1023.4 1023.4 0.0
28/05:30am 12.8 12.2 12.2 96 0.3 W 7 9 4 5 1022.9 - 0.0
28/05:00am 13.0 13.0 12.5 97 0.3 W 4 7 2 4 1022.9 - 0.0
28/04:30am 12.9 12.3 12.3 96 0.3 W 7 9 4 5 1022.9 - 0.0
28/04:00am 13.3 13.0 12.7 96 0.3 W 6 7 3 4 1022.9 - 0.0
28/03:30am 13.4 12.9 12.8 96 0.3 WNW 7 9 4 5 1023.0 - 0.0
28/03:00am 13.8 13.6 13.0 95 0.4 WSW 6 7 3 4 1023.1 1023.1 0.0
28/02:30am 14.1 14.1 13.5 96 0.3 W 6 7 3 4 1023.2 - 0.0
28/02:00am 14.0 13.7 13.2 95 0.4 W 7 9 4 5 1023.3 - 0.0
28/01:47am 14.1 13.7 13.1 94 0.6 WNW 7 9 4 5 1023.3 - 0.0
28/01:30am 14.1 13.9 13.0 93 0.6 WSW 6 7 3 4 1023.4 - 0.0
28/01:21am 14.3 14.1 13.0 92 0.7 WSW 6 7 3 4 1023.3 - 0.0
28/01:00am 15.1 15.0 13.8 92 0.7 WSW 7 9 4 5 1023.4 - 0.0
28/12:30am 15.8 16.2 13.8 88 1.1 W 4 7 2 4 1023.5 - 0.0
28/12:00am 16.6 17.3 14.4 87 1.3 WNW 4 7 2 4 1023.7 1023.7 0.0
 
Date/Time
EST
Temp
°C
App
Temp
°C
Dew
Point
°C
Rel
Hum
%
Delta-T
°C
Wind Press
QNH
hPa
Press
MSL
hPa
Rain since
9am
mm
Dir  Spd
km/h
Gust
km/h
Spd
kts
Gust
kts
27/11:30pm 16.9 17.1 14.7 87 1.3 WSW 7 11 4 6 1024.0 - 0.0
27/11:00pm 16.8 16.6 14.6 87 1.3 W 9 13 5 7 1024.2 - 0.0
27/10:30pm 16.6 16.4 14.6 88 1.1 W 9 15 5 8 1024.1 - 0.0
27/10:00pm 16.4 16.8 14.8 90 0.9 SSW 6 9 3 5 1024.1 - 0.0
27/09:30pm 16.2 16.1 14.0 87 1.2 WSW 7 11 4 6 1024.3 - 0.0
27/09:00pm 16.6 16.6 14.1 85 1.4 WSW 7 9 4 5 1024.5 1024.5 0.0
27/08:30pm 17.1 16.9 13.0 77 2.3 WNW 6 11 3 6 1024.1 - 0.0
27/08:00pm 19.9 18.2 13.6 67 3.6 NE 15 19 8 10 1024.0 - 0.0
27/07:30pm 20.1 17.7 12.6 62 4.2 NE 17 20 9 11 1023.7 - 0.0
27/07:00pm 20.1 17.8 13.1 64 4.0 NE 17 20 9 11 1023.6 - 0.0
27/06:30pm 20.1 17.9 12.1 60 4.5 ENE 15 19 8 10 1023.4 - 0.0
27/06:00pm 20.7 18.7 12.7 60 4.5 ENE 15 19 8 10 1023.2 1023.2 0.0
27/05:30pm 20.2 19.3 13.6 66 3.8 ENE 11 15 6 8 1023.2 - 0.0
27/05:00pm 20.0 19.1 13.7 67 3.6 ENE 11 15 6 8 1023.2 - 0.0
27/04:30pm 20.9 19.2 12.6 59 4.7 ENE 13 17 7 9 1022.9 - 0.0
27/04:00pm 21.6 20.5 14.3 63 4.3 E 13 19 7 10 1022.7 - 0.0
27/03:30pm 21.0 19.8 13.9 64 4.1 E 13 17 7 9 1022.8 - 0.0
27/03:00pm 20.9 21.0 15.4 71 3.3 ESE 9 15 5 8 1022.8 1022.8 0.0
27/02:30pm 21.7 21.3 15.3 67 3.8 ESE 11 15 6 8 1022.7 - 0.0
27/02:00pm 21.6 21.5 15.9 70 3.4 ESE 11 13 6 7 1022.8 - 0.0
27/01:30pm 21.4 21.0 15.3 68 3.6 ESE 11 15 6 8 1022.9 - 0.0
27/01:00pm 21.7 21.7 16.2 71 3.3 ESE 11 15 6 8 1022.9 - 0.0
27/12:30pm 20.8 20.3 14.9 69 3.5 SE 11 17 6 9 1023.5 - 0.0
27/12:00pm 21.5 20.9 14.6 65 4.0 ESE 11 15 6 8 1023.7 1023.7 0.0
27/11:30am 20.5 19.8 15.5 73 3.0 ESE 13 20 7 11 1024.0 - 0.0
27/11:00am 20.2 18.9 14.8 71 3.2 ESE 15 20 8 11 1024.6 - 0.0
27/10:30am 20.4 18.2 14.3 68 3.5 SE 19 20 10 11 1024.5 - 0.0
27/10:00am 19.8 18.4 14.4 71 3.1 S 15 22 8 12 1024.8 - 0.0
27/09:30am 19.9 18.8 14.3 70 3.2 S 13 19 7 10 1025.0 - 0.0
27/09:00am 18.3 16.7 13.8 75 2.6 S 15 19 8 10 1024.9 1024.9 0.2
27/08:30am 17.8 17.7 14.9 83 1.7 SSW 9 13 5 7 1024.6 - 0.2
27/08:00am 15.6 15.4 14.8 95 0.5 SW 9 13 5 7 1024.2 - 0.2
27/07:30am 13.9 13.7 13.6 98 0.2 WSW 7 9 4 5 1023.9 - 0.2
27/07:00am 11.2 10.3 10.7 97 0.3 W 6 6 3 3 1023.7 - 0.2
27/06:30am 11.0 9.8 10.4 96 0.3 WSW 7 9 4 5 1023.4 - 0.2
27/06:00am 11.3 9.9 10.8 97 0.3 W 9 11 5 6 1023.1 1023.1 0.2
27/05:51am 11.1 9.7 10.8 98 0.2 W 9 11 5 6 1023.1 - 0.2
27/05:30am 11.2 10.1 10.7 97 0.3 W 7 9 4 5 1022.8 - 0.2
27/05:09am 12.1 11.4 11.5 96 0.3 W 6 6 3 3 1022.5 - 0.2
27/05:00am 12.0 11.1 11.5 97 0.3 W 7 9 4 5 1022.5 - 0.2
27/04:48am 11.9 10.6 11.4 97 0.3 W 9 9 5 5 1022.8 - 0.2
27/04:30am 11.2 10.1 10.6 96 0.3 W 7 9 4 5 1022.4 - 0.2
27/04:17am 11.8 11.5 11.3 97 0.3 W 4 6 2 3 1022.3 - 0.2
27/04:05am 11.8 11.1 11.3 97 0.3 W 6 7 3 4 1022.3 - 0.2
27/04:00am 11.8 11.1 11.3 97 0.3 W 6 6 3 3 1022.3 - 0.2
27/03:30am 11.6 10.8 11.1 97 0.3 W 6 7 3 4 1022.4 - 0.2
27/03:09am 11.6 10.6 11.0 96 0.3 WNW 7 9 4 5 1022.5 - 0.2
27/03:07am 11.8 10.9 11.3 97 0.3 WNW 7 9 4 5 1022.5 - 0.2
27/03:00am 11.9 11.0 11.4 97 0.3 WNW 7 9 4 5 1022.5 1022.5 0.2
27/02:30am 10.8 9.6 10.2 96 0.3 W 7 9 4 5 1022.5 - 0.2
27/02:00am 11.5 10.5 10.9 96 0.3 WSW 7 9 4 5 1022.4 - 0.2
27/01:30am 12.2 11.6 11.6 96 0.3 WSW 6 7 3 4 1022.4 - 0.2
27/01:20am 12.3 11.7 11.7 96 0.3 WSW 6 6 3 3 1022.5 - 0.2
27/01:12am 12.4 11.8 11.8 96 0.3 WSW 6 6 3 3 1022.5 - 0.2
27/01:00am 12.0 11.3 11.4 96 0.3 WSW 6 7 3 4 1022.5 - 0.2
27/12:30am 11.5 10.6 10.7 95 0.4 WSW 6 7 3 4 1022.4 - 0.2
27/12:00am 12.0 11.1 11.2 95 0.4 WSW 7 7 4 4 1022.5 1022.5 0.2
 
Date/Time
EST
Temp
°C
App
Temp
°C
Dew
Point
°C
Rel
Hum
%
Delta-T
°C
Wind Press
QNH
hPa
Press
MSL
hPa
Rain since
9am
mm
Dir  Spd
km/h
Gust
km/h
Spd
kts
Gust
kts
26/11:33pm 11.7 10.8 10.8 94 0.5 WSW 6 7 3 4 1022.6 - 0.2
26/11:30pm 12.2 11.6 11.6 96 0.3 SW 6 9 3 5 1022.6 - 0.2
26/11:26pm 13.3 13.0 12.7 96 0.3 SW 6 9 3 5 1022.6 - 0.2
26/11:02pm 12.7 12.2 11.9 95 0.4 W 6 7 3 4 1022.5 - 0.2
26/11:00pm 12.8 12.3 12.0 95 0.4 W 6 7 3 4 1022.5 - 0.2
26/10:30pm 13.5 13.1 12.9 96 0.3 W 7 11 4 6 1022.7 - 0.2
26/10:00pm 13.6 13.1 12.8 95 0.4 SW 7 9 4 5 1022.9 - 0.2
26/09:30pm 12.6 11.7 11.2 91 0.7 SSW 7 7 4 4 1022.8 - 0.2
26/09:00pm 13.8 13.4 12.5 92 0.7 W 6 7 3 4 1022.6 1022.6 0.2
26/08:30pm 14.8 15.1 13.5 92 0.7 SW 4 7 2 4 1022.3 - 0.2
26/08:00pm 14.9 14.8 13.3 90 0.9 SW 6 9 3 5 1022.0 - 0.2
26/07:30pm 15.6 15.2 14.0 90 0.9 SW 9 11 5 6 1022.0 - 0.2
26/07:00pm 15.4 14.7 13.1 86 1.3 SW 9 9 5 5 1021.5 - 0.2
26/06:30pm 16.9 16.2 12.0 73 2.7 S 7 9 4 5 1021.3 - 0.2
26/06:00pm 19.7 18.6 13.2 66 3.7 E 11 15 6 8 1020.8 1020.8 0.2
26/05:30pm 19.4 18.6 12.9 66 3.7 ESE 9 13 5 7 1020.3 - 0.2
26/05:00pm 20.5 19.2 13.7 65 3.9 ESE 13 17 7 9 1020.0 - 0.2
26/04:30pm 21.2 20.0 13.9 63 4.2 E 13 17 7 9 1019.7 - 0.2
26/04:00pm 21.8 21.1 14.4 63 4.3 E 11 15 6 8 1019.8 - 0.2
26/03:30pm 22.2 21.2 14.6 62 4.5 E 13 15 7 8 1019.5 - 0.2
26/03:00pm 22.7 22.0 15.3 63 4.4 ENE 13 17 7 9 1019.1 1019.1 0.2
26/02:30pm 22.9 21.7 15.0 61 4.7 NE 15 19 8 10 1019.0 - 0.2
26/02:00pm 22.9 21.4 14.2 58 5.1 ENE 15 17 8 9 1019.0 - 0.2
26/01:30pm 23.6 22.4 14.0 55 5.6 ENE 13 17 7 9 1019.0 - 0.2
26/01:00pm 23.7 22.6 13.0 51 6.2 ENE 11 15 6 8 1019.2 - 0.2
26/12:30pm 23.4 22.1 13.6 54 5.7 E 13 15 7 8 1019.4 - 0.2
26/12:00pm 23.4 22.9 12.7 51 6.1 SE 7 15 4 8 1019.7 1019.7 0.2
26/11:30am 23.2 22.3 11.3 47 6.6 W 7 11 4 6 1020.4 - 0.2
26/11:00am 23.3 22.5 11.7 48 6.5 WSW 7 15 4 8 1020.7 - 0.2
26/10:30am 22.3 21.4 13.6 58 5.0 W 11 17 6 9 1021.0 - 0.0
26/10:00am 21.8 21.9 14.4 63 4.3 WNW 7 15 4 8 1021.1 - 0.0
26/09:30am 20.2 20.1 15.0 72 3.1 WNW 9 13 5 7 1021.2 - 0.0
26/09:00am 17.9 18.1 14.8 82 1.8 WNW 7 9 4 5 1021.1 1021.1 0.0
26/08:30am 16.1 16.2 14.5 90 0.9 WNW 7 9 4 5 1021.0 - 0.0
26/08:00am 14.7 14.7 14.1 96 0.3 W 7 11 4 6 1020.8 - 0.0
26/07:30am 12.8 12.2 12.3 97 0.3 W 7 7 4 4 1020.3 - 0.0
26/07:20am 12.0 11.3 11.4 96 0.3 W 6 7 3 4 1020.1 - 0.0
26/07:00am 10.8 9.6 10.3 97 0.3 W 7 9 4 5 1020.0 - 0.0
26/06:30am 10.6 9.3 10.0 96 0.3 W 7 9 4 5 1019.8 - 0.0
26/06:00am 11.0 11.1 10.2 95 0.4 CALM 0 0 0 0 1019.6 1019.6 0.0
26/05:30am 11.6 11.6 11.0 96 0.3 W 2 6 1 3 1019.4 - 0.0
26/05:21am 12.0 11.1 11.4 96 0.3 W 7 11 4 6 1019.3 - 0.0
26/05:00am 12.8 11.1 12.3 97 0.3 WNW 13 15 7 8 1019.1 - 0.0
26/04:30am 12.8 11.1 12.5 98 0.2 WNW 13 15 7 8 1018.9 - 0.0
26/04:00am 13.2 11.2 12.7 97 0.3 WNW 15 17 8 9 1018.9 - 0.0
26/03:30am 13.0 11.3 12.5 97 0.3 WNW 13 15 7 8 1018.9 - 0.0
26/03:00am 13.2 11.6 12.7 97 0.3 WNW 13 17 7 9 1019.0 1019.0 0.0
26/02:30am 12.6 11.2 12.1 97 0.3 WNW 11 13 6 7 1019.0 - 0.0
26/02:13am 13.0 12.1 12.5 97 0.3 WNW 9 11 5 6 1019.0 - 0.0
26/02:00am 12.9 11.9 12.3 96 0.3 W 9 9 5 5 1019.1 - 0.0
26/01:38am 12.7 11.3 12.1 96 0.3 WNW 11 13 6 7 1019.2 - 0.0
26/01:30am 12.9 11.2 12.4 97 0.3 WNW 13 13 7 7 1019.2 - 0.0
26/01:00am 13.3 11.7 12.8 97 0.3 WNW 13 15 7 8 1019.2 - 0.0
26/12:35am 13.3 12.1 12.8 97 0.3 WNW 11 15 6 8 1019.3 - 0.0
26/12:30am 13.2 12.0 12.7 97 0.3 WNW 11 13 6 7 1019.3 - 0.0
26/12:00am 13.5 12.7 13.0 97 0.3 WNW 9 11 5 6 1019.4 1019.4 0.0
 
Date/Time
EST
Temp
°C
App
Temp
°C
Dew
Point
°C
Rel
Hum
%
Delta-T
°C
Wind Press
QNH
hPa
Press
MSL
hPa
Rain since
9am
mm
Dir  Spd
km/h
Gust
km/h
Spd
kts
Gust
kts
25/11:30pm 12.8 11.8 12.3 97 0.3 W 9 11 5 6 1019.6 - 0.0
25/11:00pm 13.1 12.2 12.5 96 0.3 W 9 11 5 6 1019.6 - 0.0
25/10:30pm 13.6 13.2 13.1 97 0.3 W 7 7 4 4 1019.8 - 0.0
25/10:14pm 13.6 13.2 13.1 97 0.3 W 7 11 4 6 1019.9 - 0.0
25/10:00pm 13.7 12.6 13.1 96 0.3 W 11 11 6 6 1019.9 - 0.0
25/09:30pm 13.8 13.1 13.2 96 0.3 W 9 11 5 6 1019.6 - 0.0
25/09:00pm 14.1 13.8 13.3 95 0.4 W 7 9 4 5 1019.5 1019.5 0.0
25/08:34pm 13.6 13.2 12.5 93 0.6 SW 6 7 3 4 1019.4 - 0.0
25/08:30pm 14.3 14.3 13.5 95 0.4 SW 6 7 3 4 1019.4 - 0.0
25/08:29pm 14.4 14.4 13.6 95 0.4 SW 6 7 3 4 1019.4 - 0.0
25/08:11pm 14.4 14.3 13.3 93 0.6 SW 6 7 3 4 1019.3 - 0.0
25/08:00pm 14.8 14.6 13.7 93 0.6 SW 7 7 4 4 1019.4 - 0.0
25/07:30pm 14.9 14.6 13.4 91 0.8 W 7 9 4 5 1019.1 - 0.0
25/07:00pm 15.4 14.7 13.1 86 1.3 NNW 9 11 5 6 1018.7 - 0.0

Latest Capital City Observations: Canberra | Sydney | Melbourne | Brisbane | Adelaide | Perth | Hobart | Darwin

Other Formats:

Comma delimited format used in spreadsheet applications
http://www.bom.gov.au/fwo/IDQ60901/IDQ60901.94569.axf

JavaScript Object Notation format (JSON) in row-major order
http://www.bom.gov.au/fwo/IDQ60901/IDQ60901.94569.json